Mississippi Star — 9HA2441 — position and weather

sailwx.info

Track history (hours):
 
Tides and Currents Weather Stations Pressure Air Temp Water Temp Dewpoint Dewpoint Depression Visibility Wind Speed Wind Dir Waves Ship Positions

Mississippi Star

Last reported at 2017-Feb-21 07:33 UTC. Time now 2017-Feb-24 03:56 UTC.
Position N 53°49' W 004°34'.

Length 128 m; draft 6.3 m.

Type: Ship. MMSI: 248621000.

Date/timePositionNaut miles runAvg speedWind from/ knotsBaromVisibWave heightAir tempDewpointWater temp
2017-Feb-21 07:33N 53°49' W 004°34'1210.8
2017-Feb-21 06:26N 53°55' W 004°51'910.4
2017-Feb-21 05:31N 54°02' W 005°03'1010.8
2017-Feb-21 04:34N 54°12' W 005°04'1110.9
2017-Feb-21 03:34N 54°23' W 005°04'1111.2
2017-Feb-21 02:34N 54°34' W 005°07'1111.2
2017-Feb-21 01:33N 54°45' W 005°14'1211.6
2017-Feb-21 00:33N 54°55' W 005°24'9 8.5
2017-Feb-20 23:32N 55°04' W 005°22'2410.3
2017-Feb-20 21:11N 55°25' W 005°00'1 0.0
2017-Feb-19 12:17N 55°26' W 004°60'2612.3
2017-Feb-19 10:11N 55°13' W 005°39'911.6
2017-Feb-19 09:23N 55°14' W 005°55'8 9.8
2017-Feb-19 08:33N 55°20' W 006°06'1211.6
2017-Feb-19 07:33N 55°24' W 006°25'1111.5
2017-Feb-19 06:33N 55°32' W 006°40'1212.1
2017-Feb-19 05:33N 55°41' W 006°53'200 9.5
2017-Feb-18 08:34N 58°43' W 004°19'1211.7
2017-Feb-18 07:33N 58°43' W 003°56'1312.8
2017-Feb-18 06:33N 58°43' W 003°32'1413.8
2017-Feb-18 05:33N 58°43' W 003°05'1211.7
2017-Feb-18 04:33N 58°37' W 002°46'1211.4
2017-Feb-18 03:33N 58°37' W 002°24'41010.7
2017-Feb-16 13:19N 58°07' E 010°36'911.8
2017-Feb-16 12:32N 58°11' E 010°52'1211.8
2017-Feb-16 11:32N 58°15' E 011°13'8 0.4
2017-Feb-15 15:12N 58°21' E 011°24'812.6
2017-Feb-15 14:33N 58°15' E 011°13'3 2.9
2017-Feb-15 13:28N 58°12' E 011°15'0 0.0
2017-Feb-15 12:31N 58°12' E 011°15'0 0.0
2017-Feb-15 11:31N 58°12' E 011°15'0 0.0
2017-Feb-15 10:34N 58°12' E 011°15'0 0.0
2017-Feb-15 09:25N 58°12' E 011°14'0 0.0
2017-Feb-15 08:07N 58°12' E 011°14'0 0.0
2017-Feb-15 07:18N 58°12' E 011°14'0 0.0
2017-Feb-15 06:31N 58°12' E 011°14'1 0.9
2017-Feb-15 05:33N 58°11' E 011°14'1010.1
2017-Feb-15 04:33N 58°01' E 011°12'1010.4
2017-Feb-15 03:33N 57°51' E 011°16'1010.4
2017-Feb-15 02:33N 57°41' E 011°20'1010.4
2017-Feb-15 01:33N 57°31' E 011°25'1110.8
2017-Feb-15 00:33N 57°21' E 011°31'1110.9
2017-Feb-14 23:33N 57°10' E 011°39'1110.7
2017-Feb-14 22:33N 57°00' E 011°45'1010.1
2017-Feb-14 21:33N 56°51' E 011°51'1010.0
2017-Feb-14 20:33N 56°41' E 011°57'1010.3
2017-Feb-14 19:33N 56°31' E 012°00'1010.3
2017-Feb-14 18:33N 56°21' E 012°04'1010.0
2017-Feb-14 17:33N 56°14' E 012°17'1010.2
2017-Feb-14 16:33N 56°08' E 012°31'1111.2
2017-Feb-14 15:33N 55°58' E 012°41'1211.8
2017-Feb-14 14:33N 55°46' E 012°42'1110.7
2017-Feb-14 13:33N 55°35' E 012°42'9 9.0
2017-Feb-14 12:33N 55°26' E 012°42'9 9.0
2017-Feb-14 11:33N 55°18' E 012°45'1212.1
2017-Feb-14 10:33N 55°15' E 013°06'1312.7
2017-Feb-14 09:33N 55°15' E 013°28'1312.6
2017-Feb-14 08:33N 55°14' E 013°50'1110.8
2017-Feb-14 07:33N 55°13' E 014°09'9 9.4
2017-Feb-14 06:33N 55°18' E 014°24'1010.1
2017-Feb-14 05:33N 55°26' E 014°35'1010.2
2017-Feb-14 04:33N 55°31' E 014°51'1010.1
2017-Feb-14 03:33N 55°35' E 015°07'1110.0
2017-Feb-14 02:26N 55°41' E 015°24'9 9.8
2017-Feb-14 01:33N 55°45' E 015°38'22210.4
2017-Feb-13 04:09N 58°58' E 019°02'911.9
2017-Feb-13 03:23N 59°06' E 019°09'1010.4
2017-Feb-13 02:23N 59°15' E 019°01'1010.9
2017-Feb-13 01:26N 59°22' E 018°45'1112.1
2017-Feb-13 00:33N 59°26' E 018°26'6 5.8
2017-Feb-12 23:33N 59°22' E 018°19'5 4.9
2017-Feb-12 22:31N 59°19' E 018°10'0 0.0
2017-Feb-12 05:16N 59°19' E 018°10'0 0.0
2017-Feb-12 04:33N 59°19' E 018°10'8 7.6
2017-Feb-12 03:33N 59°22' E 018°24'5 4.7
2017-Feb-12 02:33N 59°25' E 018°30'1010.4
2017-Feb-12 01:33N 59°20' E 018°48'1010.0
2017-Feb-12 00:33N 59°14' E 019°04'13 9.3
2017-Feb-11 23:11N 59°02' E 019°11'  
Track history (hours):
 
Tides and Currents Weather Stations Pressure Air Temp Water Temp Dewpoint Dewpoint Depression Visibility Wind Speed Wind Dir Waves Ship Positions

Mississippi Star

Last reported at 2017-Feb-21 07:33 UTC. Time now 2017-Feb-24 03:56 UTC.
Position N 53°49' W 004°34'.

Length 128 m; draft 6.3 m.

Type: Ship. MMSI: 248621000.

Date/timePositionNaut miles runAvg speedWind from/ knotsBaromVisibWave heightAir tempDewpointWater temp
2017-Feb-21 07:33N 53°49' W 004°34'1210.8
2017-Feb-21 06:26N 53°55' W 004°51'910.4
2017-Feb-21 05:31N 54°02' W 005°03'1010.8
2017-Feb-21 04:34N 54°12' W 005°04'1110.9
2017-Feb-21 03:34N 54°23' W 005°04'1111.2
2017-Feb-21 02:34N 54°34' W 005°07'1111.2
2017-Feb-21 01:33N 54°45' W 005°14'1211.6
2017-Feb-21 00:33N 54°55' W 005°24'9 8.5
2017-Feb-20 23:32N 55°04' W 005°22'2410.3
2017-Feb-20 21:11N 55°25' W 005°00'1 0.0
2017-Feb-19 12:17N 55°26' W 004°60'2612.3
2017-Feb-19 10:11N 55°13' W 005°39'911.6
2017-Feb-19 09:23N 55°14' W 005°55'8 9.8
2017-Feb-19 08:33N 55°20' W 006°06'1211.6
2017-Feb-19 07:33N 55°24' W 006°25'1111.5
2017-Feb-19 06:33N 55°32' W 006°40'1212.1
2017-Feb-19 05:33N 55°41' W 006°53'200 9.5
2017-Feb-18 08:34N 58°43' W 004°19'1211.7
2017-Feb-18 07:33N 58°43' W 003°56'1312.8
2017-Feb-18 06:33N 58°43' W 003°32'1413.8
2017-Feb-18 05:33N 58°43' W 003°05'1211.7
2017-Feb-18 04:33N 58°37' W 002°46'1211.4
2017-Feb-18 03:33N 58°37' W 002°24'41010.7
2017-Feb-16 13:19N 58°07' E 010°36'911.8
2017-Feb-16 12:32N 58°11' E 010°52'1211.8
2017-Feb-16 11:32N 58°15' E 011°13'8 0.4
2017-Feb-15 15:12N 58°21' E 011°24'812.6
2017-Feb-15 14:33N 58°15' E 011°13'3 2.9
2017-Feb-15 13:28N 58°12' E 011°15'0 0.0
2017-Feb-15 12:31N 58°12' E 011°15'0 0.0
2017-Feb-15 11:31N 58°12' E 011°15'0 0.0
2017-Feb-15 10:34N 58°12' E 011°15'0 0.0
2017-Feb-15 09:25N 58°12' E 011°14'0 0.0
2017-Feb-15 08:07N 58°12' E 011°14'0 0.0
2017-Feb-15 07:18N 58°12' E 011°14'0 0.0
2017-Feb-15 06:31N 58°12' E 011°14'1 0.9
2017-Feb-15 05:33N 58°11' E 011°14'1010.1
2017-Feb-15 04:33N 58°01' E 011°12'1010.4
2017-Feb-15 03:33N 57°51' E 011°16'1010.4
2017-Feb-15 02:33N 57°41' E 011°20'1010.4
2017-Feb-15 01:33N 57°31' E 011°25'1110.8
2017-Feb-15 00:33N 57°21' E 011°31'1110.9
2017-Feb-14 23:33N 57°10' E 011°39'1110.7
2017-Feb-14 22:33N 57°00' E 011°45'1010.1
2017-Feb-14 21:33N 56°51' E 011°51'1010.0
2017-Feb-14 20:33N 56°41' E 011°57'1010.3
2017-Feb-14 19:33N 56°31' E 012°00'1010.3
2017-Feb-14 18:33N 56°21' E 012°04'1010.0
2017-Feb-14 17:33N 56°14' E 012°17'1010.2
2017-Feb-14 16:33N 56°08' E 012°31'1111.2
2017-Feb-14 15:33N 55°58' E 012°41'1211.8
2017-Feb-14 14:33N 55°46' E 012°42'1110.7
2017-Feb-14 13:33N 55°35' E 012°42'9 9.0
2017-Feb-14 12:33N 55°26' E 012°42'9 9.0
2017-Feb-14 11:33N 55°18' E 012°45'1212.1
2017-Feb-14 10:33N 55°15' E 013°06'1312.7
2017-Feb-14 09:33N 55°15' E 013°28'1312.6
2017-Feb-14 08:33N 55°14' E 013°50'1110.8
2017-Feb-14 07:33N 55°13' E 014°09'9 9.4
2017-Feb-14 06:33N 55°18' E 014°24'1010.1
2017-Feb-14 05:33N 55°26' E 014°35'1010.2
2017-Feb-14 04:33N 55°31' E 014°51'1010.1
2017-Feb-14 03:33N 55°35' E 015°07'1110.0
2017-Feb-14 02:26N 55°41' E 015°24'9 9.8
2017-Feb-14 01:33N 55°45' E 015°38'22210.4
2017-Feb-13 04:09N 58°58' E 019°02'911.9
2017-Feb-13 03:23N 59°06' E 019°09'1010.4
2017-Feb-13 02:23N 59°15' E 019°01'1010.9
2017-Feb-13 01:26N 59°22' E 018°45'1112.1
2017-Feb-13 00:33N 59°26' E 018°26'6 5.8
2017-Feb-12 23:33N 59°22' E 018°19'5 4.9
2017-Feb-12 22:31N 59°19' E 018°10'0 0.0
2017-Feb-12 05:16N 59°19' E 018°10'0 0.0
2017-Feb-12 04:33N 59°19' E 018°10'8 7.6
2017-Feb-12 03:33N 59°22' E 018°24'5 4.7
2017-Feb-12 02:33N 59°25' E 018°30'1010.4
2017-Feb-12 01:33N 59°20' E 018°48'1010.0
2017-Feb-12 00:33N 59°14' E 019°04'13 9.3
2017-Feb-11 23:11N 59°02' E 019°11'  

Dump ship's entire track history